Time;durP1;ratioP1;P1;durP2;ratioP2;P2;SDS_P1;SDS_P2;PMS_P1;PMS_P2;Temp;Humidity;BMP_temperature;BMP_pressure;BME280_temperature;BME280_humidity;BME280_pressure;Samples;Min_cycle;Max_cycle;Signal;HPM_P1;HPM_P2
2022/07/30 00:00:01;;;;;;;4.68;3.47;;;21.50;75.00;;;;;;5014324;28;20030;-13
2022/07/30 00:02:27;;;;;;;4.47;3.08;;;21.60;74.90;;;;;;5013881;28;20061;-13
2022/07/30 00:04:52;;;;;;;5.72;3.83;;;21.60;74.90;;;;;;5014321;28;20022;-14
2022/07/30 00:07:18;;;;;;;5.07;3.70;;;21.60;74.90;;;;;;5012776;28;20370;-14
2022/07/30 00:09:44;;;;;;;5.63;3.83;;;21.60;75.00;;;;;;5013601;28;20145;-14
2022/07/30 00:12:10;;;;;;;4.40;3.72;;;21.60;75.00;;;;;;5014218;28;20046;-14
2022/07/30 00:14:36;;;;;;;5.65;3.97;;;21.60;75.00;;;;;;5013599;28;20022;-14
2022/07/30 00:17:04;;;;;;;5.20;4.28;;;21.70;75.00;;;;;;5014305;28;20030;-14
2022/07/30 00:19:30;;;;;;;5.78;3.55;;;21.70;75.30;;;;;;5014082;28;20030;-14
2022/07/30 00:21:56;;;;;;;5.38;3.75;;;21.70;75.20;;;;;;5013932;28;20033;-14
2022/07/30 00:24:22;;;;;;;6.60;3.60;;;21.70;75.10;;;;;;5013695;28;20561;-14
2022/07/30 00:26:49;;;;;;;6.68;3.90;;;21.70;75.00;;;;;;5013681;28;20068;-14
2022/07/30 00:29:15;;;;;;;5.60;3.75;;;21.70;75.00;;;;;;5013561;28;20114;-14
2022/07/30 00:31:41;;;;;;;7.72;5.03;;;21.60;75.00;;;;;;5013960;28;20053;-14
2022/07/30 00:34:07;;;;;;;7.93;4.95;;;21.60;77.70;;;;;;5013940;28;20076;-14
2022/07/30 00:36:33;;;;;;;5.88;4.13;;;21.50;78.40;;;;;;5013350;28;20088;-14
2022/07/30 00:38:59;;;;;;;7.78;3.85;;;21.40;77.90;;;;;;5013881;28;20084;-15
2022/07/30 00:41:25;;;;;;;7.22;4.00;;;21.40;77.00;;;;;;5013745;28;20030;-14
2022/07/30 00:43:51;;;;;;;7.28;4.65;;;21.40;76.80;;;;;;5013453;28;20022;-14
2022/07/30 00:46:17;;;;;;;8.00;4.13;;;21.40;77.30;;;;;;5013240;28;20081;-14
2022/07/30 00:48:44;;;;;;;6.40;4.68;;;21.40;78.60;;;;;;5013922;28;20036;-14
2022/07/30 00:51:10;;;;;;;5.22;3.88;;;21.30;78.90;;;;;;5013376;28;20520;-14
2022/07/30 00:53:37;;;;;;;5.25;3.63;;;21.30;77.70;;;;;;5013657;28;20117;-14
2022/07/30 00:56:03;;;;;;;4.93;3.47;;;21.30;77.50;;;;;;5013489;28;20040;-14
2022/07/30 00:58:29;;;;;;;5.22;4.13;;;21.30;77.30;;;;;;5013098;28;20030;-14
2022/07/30 01:00:55;;;;;;;6.18;4.45;;;21.40;77.20;;;;;;5013305;28;20076;-14
2022/07/30 01:03:21;;;;;;;6.07;3.90;;;21.30;77.00;;;;;;5013304;28;20058;-14
2022/07/30 01:05:48;;;;;;;5.78;3.97;;;21.30;77.00;;;;;;5013374;28;20014;-14
2022/07/30 01:08:14;;;;;;;5.32;3.75;;;21.30;77.00;;;;;;5013031;28;20122;-15
2022/07/30 01:10:41;;;;;;;5.20;4.00;;;21.30;76.90;;;;;;5013197;28;20108;-14
2022/07/30 01:13:08;;;;;;;5.47;3.80;;;21.20;76.90;;;;;;5013193;28;20402;-14
2022/07/30 01:15:34;;;;;;;5.85;3.55;;;21.20;77.10;;;;;;5013255;28;20061;-14
2022/07/30 01:18:04;;;;;;;6.53;4.30;;;21.20;77.00;;;;;;5011891;28;20029;-14
2022/07/30 01:20:38;;;;;;;5.70;4.10;;;21.10;77.00;;;;;;5012917;28;20064;-14
2022/07/30 01:23:13;;;;;;;4.32;3.40;;;21.10;77.10;;;;;;5016321;28;20030;-14
2022/07/30 01:25:40;;;;;;;5.97;4.38;;;21.00;77.20;;;;;;5017092;28;20096;-14
2022/07/30 01:28:10;;;;;;;6.30;4.18;;;21.00;78.10;;;;;;5017408;28;20048;-14
2022/07/30 01:30:40;;;;;;;6.97;4.40;;;21.00;78.20;;;;;;5016692;28;20025;-14
2022/07/30 01:33:11;;;;;;;6.32;4.43;;;20.90;78.20;;;;;;5017303;28;20107;-14
2022/07/30 01:35:40;;;;;;;5.95;4.57;;;20.90;78.20;;;;;;5017149;28;20037;-14
2022/07/30 01:38:10;;;;;;;5.68;4.30;;;20.80;78.50;;;;;;5016969;28;20022;-14
2022/07/30 01:40:37;;;;;;;6.13;4.95;;;20.70;78.40;;;;;;5016926;28;20050;-14
2022/07/30 01:43:06;;;;;;;6.07;4.22;;;20.70;78.40;;;;;;5017115;28;20482;-14
2022/07/30 01:45:33;;;;;;;5.68;4.32;;;20.60;78.60;;;;;;5016521;28;20057;-14
2022/07/30 01:48:02;;;;;;;5.95;4.38;;;20.60;78.60;;;;;;5016927;28;20112;-14
2022/07/30 01:50:31;;;;;;;5.32;4.18;;;20.50;78.60;;;;;;5016621;28;20033;-14
2022/07/30 01:52:59;;;;;;;8.50;5.20;;;20.50;78.70;;;;;;5016833;28;20030;-14
2022/07/30 01:55:38;;;;;;;11.38;5.88;;;20.50;78.80;;;;;;5016435;28;20034;-14
2022/07/30 01:58:06;;;;;;;6.47;3.83;;;20.40;78.90;;;;;;5017049;28;20022;-14
2022/07/30 02:00:36;;;;;;;6.82;5.40;;;20.40;79.00;;;;;;5016076;28;20113;-14
2022/07/30 02:03:05;;;;;;;8.23;5.45;;;20.40;79.20;;;;;;5016473;28;20033;-14
2022/07/30 02:05:33;;;;;;;7.53;5.30;;;20.30;79.40;;;;;;5016282;28;20501;-14
2022/07/30 02:08:14;;;;;;;9.13;5.25;;;20.20;79.40;;;;;;5016249;28;20444;-13
2022/07/30 02:10:52;;;;;;;9.32;4.40;;;20.20;79.60;;;;;;5016248;28;20022;-14
2022/07/30 02:13:25;;;;;;;9.73;6.30;;;20.20;79.80;;;;;;5016436;28;20026;-14
2022/07/30 02:16:14;;;;;;;9.02;6.63;;;20.20;80.10;;;;;;5015116;28;20033;-14
2022/07/30 02:18:48;;;;;;;7.40;5.00;;;20.20;80.10;;;;;;5016536;28;20053;-14
2022/07/30 02:21:18;;;;;;;8.15;5.65;;;20.20;80.00;;;;;;5016647;28;20026;-14
2022/07/30 02:23:48;;;;;;;7.30;5.85;;;20.20;79.90;;;;;;5016324;28;20096;-14
2022/07/30 02:26:19;;;;;;;5.65;4.32;;;20.20;80.40;;;;;;5015884;28;20022;-14
2022/07/30 02:28:50;;;;;;;7.18;4.43;;;20.20;80.00;;;;;;5016067;28;20425;-14
2022/07/30 02:31:21;;;;;;;5.55;4.40;;;20.20;79.90;;;;;;5015884;28;20065;-14
2022/07/30 02:33:49;;;;;;;6.38;4.88;;;20.10;79.80;;;;;;5015559;28;20025;-14
2022/07/30 02:36:18;;;;;;;8.27;6.18;;;20.20;80.20;;;;;;5015407;28;20037;-14
2022/07/30 02:38:46;;;;;;;7.50;5.38;;;20.10;80.00;;;;;;5015675;28;20076;-14
2022/07/30 02:41:13;;;;;;;8.00;5.82;;;20.10;80.20;;;;;;5015873;28;20057;-14
2022/07/30 02:43:41;;;;;;;8.27;6.35;;;20.00;80.10;;;;;;5015721;28;20371;-14
2022/07/30 02:46:10;;;;;;;11.43;6.78;;;20.00;80.20;;;;;;5015456;28;20029;-14
2022/07/30 02:48:39;;;;;;;8.18;5.47;;;20.00;80.30;;;;;;5015303;28;20026;-14
2022/07/30 02:51:07;;;;;;;7.65;5.20;;;19.90;80.60;;;;;;5015834;28;20014;-14
2022/07/30 02:53:36;;;;;;;8.20;5.57;;;19.90;80.50;;;;;;5015560;28;20034;-14
2022/07/30 02:56:04;;;;;;;8.05;4.88;;;19.90;80.50;;;;;;5015477;28;20104;-14
2022/07/30 02:58:34;;;;;;;7.82;4.47;;;19.90;80.50;;;;;;5015230;28;20037;-14
2022/07/30 03:01:02;;;;;;;7.75;5.38;;;19.90;80.30;;;;;;5015531;28;20095;-14
2022/07/30 03:03:29;;;;;;;6.43;4.85;;;19.90;80.40;;;;;;5015574;28;20399;-14
2022/07/30 03:05:57;;;;;;;7.18;4.68;;;19.90;80.50;;;;;;5015658;28;20100;-14
2022/07/30 03:08:25;;;;;;;5.05;4.20;;;19.90;80.30;;;;;;5015189;28;20076;-14
2022/07/30 03:10:54;;;;;;;6.78;4.60;;;19.90;80.30;;;;;;5015057;28;20563;-14
2022/07/30 03:13:22;;;;;;;7.82;4.60;;;19.80;80.50;;;;;;5015177;28;20037;-14
2022/07/30 03:15:50;;;;;;;6.40;4.68;;;19.80;80.40;;;;;;5014880;28;20250;-14
2022/07/30 03:18:19;;;;;;;6.45;4.50;;;19.80;80.50;;;;;;5014998;28;20026;-14
2022/07/30 03:20:49;;;;;;;7.47;4.57;;;19.80;80.80;;;;;;5015210;28;20021;-14
2022/07/30 03:23:19;;;;;;;5.30;3.90;;;19.70;80.70;;;;;;5015386;28;20030;-14
2022/07/30 03:25:57;;;;;;;9.05;5.80;;;19.70;80.60;;;;;;5014852;28;20014;-13
2022/07/30 03:28:24;;;;;;;6.45;4.50;;;19.60;80.70;;;;;;5014886;28;20033;-14
2022/07/30 03:30:52;;;;;;;7.22;5.13;;;19.60;80.70;;;;;;5014909;28;20105;-14
2022/07/30 03:33:19;;;;;;;4.63;3.83;;;19.60;80.60;;;;;;5014645;28;20034;-13
2022/07/30 03:35:47;;;;;;;6.68;4.72;;;19.50;80.80;;;;;;5014544;28;20491;-13
2022/07/30 03:38:14;;;;;;;5.95;4.00;;;19.50;80.70;;;;;;5014685;28;20385;-13
2022/07/30 03:40:44;;;;;;;5.93;4.30;;;19.50;80.70;;;;;;5014442;28;20045;-13
2022/07/30 03:43:11;;;;;;;6.15;4.65;;;19.40;80.80;;;;;;5014444;28;20504;-14
2022/07/30 03:45:40;;;;;;;6.63;3.88;;;19.40;81.00;;;;;;5013454;28;20478;-14
2022/07/30 03:48:08;;;;;;;7.40;5.10;;;19.40;81.00;;;;;;5013156;28;20110;-13
2022/07/30 03:50:39;;;;;;;7.93;5.35;;;19.30;81.10;;;;;;5014444;28;20088;-14
2022/07/30 03:53:07;;;;;;;6.57;4.63;;;19.30;81.70;;;;;;5014302;28;20031;-14
2022/07/30 03:55:34;;;;;;;8.52;5.35;;;19.30;81.60;;;;;;5014122;28;20092;-14
2022/07/30 03:58:01;;;;;;;7.03;4.90;;;19.20;82.10;;;;;;5014513;28;20124;-13
2022/07/30 04:00:27;;;;;;;7.65;4.95;;;19.20;81.80;;;;;;5014216;28;20029;-14
2022/07/30 04:02:54;;;;;;;7.63;4.97;;;19.10;81.90;;;;;;5014391;28;20080;-14
2022/07/30 04:05:20;;;;;;;7.32;4.90;;;19.10;81.90;;;;;;5014060;28;20470;-14
2022/07/30 04:07:46;;;;;;;6.53;4.63;;;19.10;81.90;;;;;;5014292;28;20489;-14
2022/07/30 04:10:13;;;;;;;6.60;4.50;;;19.00;82.00;;;;;;5012731;28;20060;-14
2022/07/30 04:12:39;;;;;;;6.47;4.38;;;19.00;82.10;;;;;;5014155;28;20386;-14
2022/07/30 04:15:05;;;;;;;6.20;4.65;;;19.00;82.10;;;;;;5014045;28;20030;-13
2022/07/30 04:17:48;;;;;;;6.55;5.00;;;18.90;82.00;;;;;;5013867;28;20030;-13
2022/07/30 04:20:22;;;;;;;7.65;4.70;;;19.00;82.30;;;;;;5013989;28;20105;-13
2022/07/30 04:22:49;;;;;;;6.82;4.72;;;19.00;82.40;;;;;;5014149;28;20022;-13
2022/07/30 04:25:15;;;;;;;6.68;4.82;;;18.90;82.30;;;;;;5014056;28;20149;-13
2022/07/30 04:27:41;;;;;;;6.97;4.40;;;18.90;82.30;;;;;;5013875;28;20088;-14
2022/07/30 04:30:08;;;;;;;7.68;5.55;;;18.90;82.20;;;;;;5013904;28;20033;-14
2022/07/30 04:32:35;;;;;;;7.10;5.47;;;18.90;82.40;;;;;;5013719;28;20036;-13
2022/07/30 04:35:02;;;;;;;9.20;6.65;;;19.00;82.30;;;;;;5014048;28;20397;-13
2022/07/30 04:37:28;;;;;;;11.68;6.47;;;19.00;82.40;;;;;;5012386;28;20025;-13
2022/07/30 04:39:56;;;;;;;10.20;5.72;;;19.10;82.50;;;;;;5013605;28;20473;-13
2022/07/30 04:42:27;;;;;;;7.40;4.85;;;19.10;82.20;;;;;;5013630;28;20478;-13
2022/07/30 04:44:54;;;;;;;7.57;4.72;;;19.20;82.10;;;;;;5014042;28;20056;-14
2022/07/30 04:47:21;;;;;;;7.72;5.13;;;19.30;82.10;;;;;;5013755;28;20040;-14
2022/07/30 04:49:48;;;;;;;8.35;6.18;;;19.30;82.00;;;;;;5013414;28;20029;-14
2022/07/30 04:52:17;;;;;;;9.95;6.78;;;19.40;81.70;;;;;;5013205;28;20064;-15
2022/07/30 04:54:50;;;;;;;9.77;6.45;;;19.50;81.60;;;;;;5013298;28;20113;-13
2022/07/30 04:57:18;;;;;;;11.10;6.57;;;19.60;81.40;;;;;;5013196;28;20434;-13
2022/07/30 04:59:44;;;;;;;7.22;5.18;;;19.60;81.40;;;;;;5013390;28;20508;-13
2022/07/30 05:02:11;;;;;;;8.32;5.80;;;19.80;81.30;;;;;;5013458;28;20030;-14
2022/07/30 05:04:40;;;;;;;11.10;7.13;;;19.90;81.20;;;;;;5013158;28;20034;-13
2022/07/30 05:07:07;;;;;;;11.30;7.50;;;19.90;81.00;;;;;;5013814;28;20036;-13
2022/07/30 05:09:35;;;;;;;10.63;6.95;;;20.00;80.80;;;;;;5013223;28;20494;-13
2022/07/30 05:12:00;;;;;;;10.57;7.00;;;20.10;80.50;;;;;;5013241;28;20077;-14
2022/07/30 05:14:27;;;;;;;10.32;6.20;;;20.20;80.70;;;;;;5012879;28;20030;-13
2022/07/30 05:16:54;;;;;;;12.65;8.55;;;20.40;81.10;;;;;;5013316;28;20041;-13
2022/07/30 05:19:21;;;;;;;9.68;6.63;;;20.40;80.30;;;;;;5013157;28;20552;-14
2022/07/30 05:21:47;;;;;;;9.15;6.20;;;20.60;80.20;;;;;;5013456;28;20053;-14
2022/07/30 05:24:13;;;;;;;13.48;9.02;;;20.70;79.70;;;;;;5013407;28;20029;-13
2022/07/30 05:26:40;;;;;;;12.80;8.90;;;20.80;80.00;;;;;;5013386;28;20038;-14
2022/07/30 05:29:06;;;;;;;11.30;8.35;;;20.90;80.20;;;;;;5011769;28;20037;-14
2022/07/30 05:31:32;;;;;;;10.90;7.35;;;21.10;79.20;;;;;;5013316;28;20052;-13
2022/07/30 05:33:58;;;;;;;11.52;8.82;;;21.20;78.90;;;;;;5013088;28;20359;-14
2022/07/30 05:36:24;;;;;;;9.60;7.28;;;21.30;78.80;;;;;;5012976;28;20034;-14
2022/07/30 05:38:50;;;;;;;9.80;6.80;;;21.30;78.30;;;;;;5013211;28;20355;-13
2022/07/30 05:41:16;;;;;;;14.45;9.45;;;21.40;78.60;;;;;;5012884;28;20067;-13
2022/07/30 05:43:42;;;;;;;13.18;9.23;;;21.50;78.90;;;;;;5012823;28;20041;-14
2022/07/30 05:46:08;;;;;;;11.45;8.13;;;21.70;79.20;;;;;;5013217;28;20026;-14
2022/07/30 05:48:37;;;;;;;12.73;8.70;;;21.80;78.10;;;;;;5012720;28;20482;-14
2022/07/30 05:51:03;;;;;;;13.38;8.35;;;21.90;78.90;;;;;;5013172;28;20026;-14
2022/07/30 05:53:29;;;;;;;15.52;10.00;;;22.00;78.00;;;;;;5012825;28;20502;-14
2022/07/30 05:55:55;;;;;;;12.40;10.20;;;22.20;77.60;;;;;;5013086;28;20041;-14
2022/07/30 05:58:21;;;;;;;14.02;10.50;;;22.20;77.10;;;;;;5012914;28;20026;-14
2022/07/30 06:00:47;;;;;;;14.30;9.98;;;22.30;77.20;;;;;;5012696;28;20488;-14
2022/07/30 06:03:13;;;;;;;14.73;10.30;;;22.30;77.40;;;;;;5011606;28;20057;-14
2022/07/30 06:05:38;;;;;;;14.05;10.07;;;22.30;77.70;;;;;;5012701;28;20116;-14
2022/07/30 06:08:04;;;;;;;13.27;8.13;;;22.40;77.20;;;;;;5014216;28;20112;-14
2022/07/30 06:10:30;;;;;;;15.55;9.15;;;22.50;77.60;;;;;;5016080;28;20053;-14
2022/07/30 06:12:57;;;;;;;12.80;8.10;;;22.60;77.00;;;;;;5016176;28;20489;-14
2022/07/30 06:15:23;;;;;;;11.13;7.38;;;22.70;77.10;;;;;;5016156;28;20077;-14
2022/07/30 06:17:49;;;;;;;13.95;8.50;;;22.70;76.70;;;;;;5016401;28;20096;-14
2022/07/30 06:20:16;;;;;;;12.75;8.75;;;22.90;76.10;;;;;;5015955;28;20478;-14
2022/07/30 06:22:42;;;;;;;11.55;8.88;;;22.90;75.70;;;;;;5016298;28;20053;-14
2022/07/30 06:25:09;;;;;;;11.20;7.82;;;22.90;75.90;;;;;;5015972;28;20584;-14
2022/07/30 06:27:36;;;;;;;12.75;8.27;;;23.10;75.30;;;;;;5016174;28;20030;-14
2022/07/30 06:30:08;;;;;;;13.60;8.30;;;23.20;75.00;;;;;;5016313;28;20021;-14
2022/07/30 06:32:34;;;;;;;11.27;8.18;;;23.30;74.70;;;;;;5015707;28;20020;-14
2022/07/30 06:35:00;;;;;;;11.43;7.78;;;23.40;75.00;;;;;;5014443;28;20029;-14
2022/07/30 06:37:26;;;;;;;12.05;8.00;;;23.50;74.80;;;;;;5015955;28;20390;-13
2022/07/30 06:39:52;;;;;;;8.88;6.70;;;23.60;73.80;;;;;;5015385;28;20042;-14
2022/07/30 06:42:19;;;;;;;9.52;6.13;;;23.80;73.10;;;;;;5015698;28;20038;-14
2022/07/30 06:44:45;;;;;;;8.60;5.60;;;23.90;72.60;;;;;;5015782;28;20017;-14
2022/07/30 06:47:10;;;;;;;9.48;6.28;;;23.90;72.50;;;;;;5015737;28;20045;-14
2022/07/30 06:49:37;;;;;;;9.82;6.03;;;24.00;72.20;;;;;;5015745;28;20026;-14
2022/07/30 06:52:03;;;;;;;9.73;6.15;;;24.00;71.20;;;;;;5015738;28;20053;-14
2022/07/30 06:54:29;;;;;;;8.13;5.53;;;24.10;71.40;;;;;;5015217;28;20506;-14
2022/07/30 06:56:56;;;;;;;8.73;5.47;;;24.30;70.90;;;;;;5015319;28;20061;-14
2022/07/30 06:59:21;;;;;;;12.68;6.60;;;24.40;70.20;;;;;;5015201;28;20506;-14
2022/07/30 07:01:48;;;;;;;8.82;6.22;;;24.60;69.10;;;;;;5015331;28;20040;-14
2022/07/30 07:04:14;;;;;;;9.38;5.82;;;24.80;69.20;;;;;;5015327;28;20033;-16
2022/07/30 07:06:40;;;;;;;8.02;5.32;;;24.90;69.10;;;;;;5015704;28;20018;-13
2022/07/30 07:09:06;;;;;;;6.35;4.68;;;25.10;68.00;;;;;;5015087;28;20021;-14
2022/07/30 07:11:32;;;;;;;7.43;5.00;;;25.30;67.30;;;;;;5015360;28;20033;-14
2022/07/30 07:13:58;;;;;;;7.30;4.55;;;25.40;67.00;;;;;;5015221;28;20030;-14
2022/07/30 07:16:24;;;;;;;6.25;4.88;;;25.60;66.60;;;;;;5014818;28;20038;-14
2022/07/30 07:18:51;;;;;;;8.05;4.80;;;25.80;66.30;;;;;;5014076;28;20018;-13
2022/07/30 07:21:18;;;;;;;5.88;4.55;;;26.00;65.60;;;;;;5015173;28;20054;-13
2022/07/30 07:23:43;;;;;;;8.15;5.35;;;26.20;64.80;;;;;;5015156;28;20092;-13
2022/07/30 07:26:13;;;;;;;7.60;5.07;;;26.20;62.90;;;;;;5014924;28;20022;-13
2022/07/30 07:28:39;;;;;;;6.88;4.95;;;26.30;63.60;;;;;;5013310;28;20030;-13
2022/07/30 07:31:06;;;;;;;6.22;4.85;;;26.40;63.70;;;;;;5014654;28;20068;-13
2022/07/30 07:33:32;;;;;;;6.43;5.00;;;26.60;63.30;;;;;;5014854;28;20442;-13
2022/07/30 07:35:57;;;;;;;6.45;4.50;;;26.70;63.00;;;;;;5014905;28;20529;-13
2022/07/30 07:38:23;;;;;;;5.60;4.70;;;26.80;61.10;;;;;;5014281;28;20486;-14
2022/07/30 07:40:49;;;;;;;8.05;5.00;;;26.90;61.80;;;;;;5014751;28;20144;-14
2022/07/30 07:43:15;;;;;;;7.35;4.97;;;27.00;61.20;;;;;;5014489;28;20105;-14
2022/07/30 07:45:43;;;;;;;9.77;5.47;;;27.10;61.40;;;;;;5014376;28;20030;-13
2022/07/30 07:48:09;;;;;;;8.82;5.15;;;27.10;60.90;;;;;;5014436;28;20180;-14
2022/07/30 07:50:35;;;;;;;8.25;5.95;;;27.20;60.50;;;;;;5014183;28;20095;-14
2022/07/30 07:53:01;;;;;;;8.07;6.10;;;27.40;59.90;;;;;;5014544;28;20417;-14
2022/07/30 07:55:27;;;;;;;6.82;5.63;;;27.50;59.70;;;;;;5014515;28;20408;-14
2022/07/30 07:57:53;;;;;;;7.82;5.43;;;27.70;59.30;;;;;;5014491;28;20083;-14
2022/07/30 08:00:19;;;;;;;7.88;5.82;;;27.80;58.90;;;;;;5014195;28;20022;-14
2022/07/30 08:02:45;;;;;;;7.43;5.90;;;27.90;58.30;;;;;;5014652;28;20069;-14
2022/07/30 08:05:12;;;;;;;6.50;4.63;;;28.10;58.40;;;;;;5014631;28;20022;-14
2022/07/30 08:07:42;;;;;;;6.72;4.80;;;28.20;57.20;;;;;;5014100;28;20034;-13
2022/07/30 08:10:09;;;;;;;7.45;5.20;;;28.40;56.30;;;;;;5013977;28;20099;-13
2022/07/30 08:12:37;;;;;;;7.55;6.00;;;28.60;56.50;;;;;;5012561;28;20033;-13
2022/07/30 08:15:03;;;;;;;7.22;5.32;;;28.70;55.80;;;;;;5013777;28;20076;-13
2022/07/30 08:17:29;;;;;;;7.38;5.50;;;28.90;55.50;;;;;;5014075;28;20030;-13
2022/07/30 08:20:00;;;;;;;8.55;5.97;;;29.00;55.10;;;;;;5014172;28;20030;-14
2022/07/30 08:22:26;;;;;;;7.57;5.63;;;29.20;54.30;;;;;;5013730;28;20018;-14
2022/07/30 08:24:52;;;;;;;10.02;5.85;;;29.10;53.90;;;;;;5013660;28;20037;-13
2022/07/30 08:27:18;;;;;;;6.72;5.60;;;29.30;54.10;;;;;;5013726;28;20025;-14
2022/07/30 08:29:44;;;;;;;7.45;5.38;;;29.50;53.90;;;;;;5013457;28;20358;-13
2022/07/30 08:32:10;;;;;;;5.93;3.67;;;29.70;53.50;;;;;;5013327;28;20025;-13
2022/07/30 08:34:35;;;;;;;6.63;4.93;;;30.00;53.50;;;;;;5013501;28;20022;-13
2022/07/30 08:37:01;;;;;;;6.78;4.85;;;30.30;51.70;;;;;;5013818;28;20072;-13
2022/07/30 08:39:27;;;;;;;7.60;5.35;;;30.50;51.10;;;;;;5013086;28;20061;-13
2022/07/30 08:41:54;;;;;;;8.13;5.30;;;30.60;50.80;;;;;;5013564;28;20036;-13
2022/07/30 08:44:21;;;;;;;10.23;6.60;;;30.60;51.40;;;;;;5013189;28;20040;-13
2022/07/30 08:46:50;;;;;;;8.73;6.15;;;30.60;51.30;;;;;;5012233;28;20113;-13
2022/07/30 08:49:17;;;;;;;5.82;4.80;;;30.60;51.40;;;;;;5013398;28;20041;-13
2022/07/30 08:51:44;;;;;;;7.85;6.05;;;30.50;51.90;;;;;;5013579;28;20120;-13
2022/07/30 08:54:10;;;;;;;6.30;5.05;;;30.40;51.90;;;;;;5013541;28;20076;-13
2022/07/30 08:56:37;;;;;;;7.18;5.75;;;30.50;52.00;;;;;;5013187;28;20022;-13
2022/07/30 08:59:04;;;;;;;5.35;4.60;;;30.80;51.50;;;;;;5013566;28;20033;-13
2022/07/30 09:01:30;;;;;;;5.88;3.80;;;31.10;50.80;;;;;;5014002;28;20053;-13
2022/07/30 09:03:56;;;;;;;4.65;3.80;;;31.10;50.10;;;;;;5013590;28;20025;-13
2022/07/30 09:06:22;;;;;;;6.22;5.15;;;31.10;49.20;;;;;;5013368;28;20030;-13
2022/07/30 09:08:48;;;;;;;8.68;5.90;;;31.40;49.90;;;;;;5013878;28;20396;-13
2022/07/30 09:11:14;;;;;;;7.80;5.07;;;31.60;49.10;;;;;;5013205;28;20034;-14
2022/07/30 09:13:41;;;;;;;6.60;4.68;;;31.80;48.90;;;;;;5013547;28;20023;-13
2022/07/30 09:16:19;;;;;;;6.85;5.22;;;32.20;49.00;;;;;;5011848;28;20037;-12
2022/07/30 09:18:44;;;;;;;6.57;4.78;;;32.40;47.10;;;;;;5013530;28;20087;-13
2022/07/30 09:21:28;;;;;;;6.20;4.47;;;32.60;46.60;;;;;;5013375;28;20109;-13
2022/07/30 09:24:00;;;;;;;7.47;4.30;;;32.70;46.40;;;;;;5013141;28;20392;-13
2022/07/30 09:26:28;;;;;;;6.10;4.13;;;32.90;46.30;;;;;;5013263;28;20113;-13
2022/07/30 09:28:54;;;;;;;6.15;4.20;;;33.10;46.20;;;;;;5013342;28;20029;-13
2022/07/30 09:31:22;;;;;;;5.85;3.80;;;33.40;45.90;;;;;;5012967;28;20069;-13
2022/07/30 09:33:48;;;;;;;6.20;4.13;;;33.60;45.20;;;;;;5013019;28;20026;-13
2022/07/30 09:36:17;;;;;;;5.28;4.03;;;33.70;44.50;;;;;;5013119;28;20359;-14
2022/07/30 09:38:50;;;;;;;5.07;3.40;;;34.00;42.70;;;;;;5013501;28;20037;-14
2022/07/30 09:41:21;;;;;;;4.65;4.15;;;34.00;43.30;;;;;;5012828;28;20050;-13
2022/07/30 09:43:48;;;;;;;6.15;4.72;;;34.30;42.40;;;;;;5015760;28;20030;-13
2022/07/30 09:46:15;;;;;;;4.22;3.70;;;34.30;42.40;;;;;;5016624;28;20026;-12
2022/07/30 09:48:44;;;;;;;4.55;3.78;;;34.10;42.60;;;;;;5016946;28;20034;-13
2022/07/30 09:51:11;;;;;;;3.80;3.30;;;33.90;42.80;;;;;;5016591;28;20026;-13
2022/07/30 09:53:54;;;;;;;4.78;3.33;;;33.70;42.90;;;;;;5016491;28;20057;-13
2022/07/30 09:56:27;;;;;;;3.65;3.35;;;33.90;41.70;;;;;;5016394;28;20042;-13
2022/07/30 09:58:54;;;;;;;4.60;3.72;;;34.00;42.10;;;;;;5016835;28;20462;-13
2022/07/30 10:01:21;;;;;;;3.47;3.17;;;34.20;41.80;;;;;;5016326;28;20030;-13
2022/07/30 10:03:47;;;;;;;4.10;3.50;;;34.40;41.20;;;;;;5016680;28;20026;-13
2022/07/30 10:06:13;;;;;;;3.65;3.03;;;34.50;40.70;;;;;;5016648;28;20101;-13
2022/07/30 10:08:43;;;;;;;3.78;2.88;;;34.80;40.90;;;;;;5016265;28;20038;-13
2022/07/30 10:11:25;;;;;;;4.97;3.20;;;34.90;40.10;;;;;;5016330;28;20037;-14
2022/07/30 10:13:58;;;;;;;3.42;2.78;;;35.20;40.40;;;;;;5016260;28;20030;-13
2022/07/30 10:16:26;;;;;;;3.42;3.13;;;35.50;40.00;;;;;;5015827;28;20088;-14
2022/07/30 10:18:56;;;;;;;6.03;3.15;;;35.50;39.30;;;;;;5016052;28;20029;-13
2022/07/30 10:21:23;;;;;;;3.95;3.13;;;35.30;38.50;;;;;;5016330;28;20021;-13
2022/07/30 10:23:51;;;;;;;2.97;2.67;;;35.40;38.40;;;;;;5016054;28;20035;-13
2022/07/30 10:26:19;;;;;;;3.80;3.10;;;35.70;38.50;;;;;;5015699;28;20026;-13
2022/07/30 10:28:46;;;;;;;3.83;2.72;;;36.10;36.60;;;;;;5015924;28;20069;-13
2022/07/30 10:31:15;;;;;;;3.05;2.75;;;36.40;36.40;;;;;;5015966;28;20044;-14
2022/07/30 10:33:41;;;;;;;3.40;2.70;;;36.70;36.50;;;;;;5016112;28;20037;-13
2022/07/30 10:36:10;;;;;;;4.18;2.95;;;36.90;35.30;;;;;;5015707;28;20482;-13
2022/07/30 10:38:39;;;;;;;3.22;2.85;;;37.20;34.30;;;;;;5015826;28;20033;-14
2022/07/30 10:41:15;;;;;;;3.97;2.40;;;37.40;34.80;;;;;;5015433;28;20455;-14
2022/07/30 10:44:21;;;;;;;2.40;2.20;;;37.50;34.50;;;;;;5014804;28;20050;-13
2022/07/30 10:47:09;;;;;;;2.15;2.05;;;37.70;33.40;;;;;;5015613;28;20486;-13
2022/07/30 10:49:35;;;;;;;4.68;2.50;;;38.10;33.70;;;;;;5015942;28;20026;-13
2022/07/30 10:52:01;;;;;;;3.05;2.72;;;38.50;32.00;;;;;;5015618;28;20477;-13
2022/07/30 10:54:33;;;;;;;4.13;2.63;;;38.30;32.50;;;;;;5014838;28;20117;-13
2022/07/30 10:57:19;;;;;;;4.18;2.58;;;38.10;32.30;;;;;;5015322;28;20544;-13
2022/07/30 10:59:54;;;;;;;4.15;2.42;;;38.20;32.30;;;;;;5015499;28;20067;-13
2022/07/30 11:02:22;;;;;;;2.28;2.08;;;38.30;33.30;;;;;;5015047;28;20401;-13
2022/07/30 11:04:49;;;;;;;2.20;2.00;;;38.60;31.80;;;;;;5015929;28;20079;-13
2022/07/30 11:07:21;;;;;;;2.00;1.90;;;38.70;30.90;;;;;;5014023;28;20116;-13
2022/07/30 11:09:54;;;;;;;2.60;2.10;;;38.90;31.10;;;;;;5015223;28;20382;-14
2022/07/30 11:12:56;;;;;;;2.20;2.10;;;39.30;30.30;;;;;;5015050;28;20021;-14
2022/07/30 11:15:22;;;;;;;2.67;2.30;;;39.60;30.20;;;;;;4993391;28;20057;-13
2022/07/30 11:18:04;;;;;;;2.65;2.42;;;39.80;29.90;;;;;;4993408;28;20045;-13
2022/07/30 11:20:32;;;;;;;3.58;2.30;;;39.80;29.40;;;;;;4993183;28;20038;-13
2022/07/30 11:23:30;;;;;;;2.60;2.40;;;39.70;30.00;;;;;;4993413;28;20038;-13
2022/07/30 11:25:57;;;;;;;2.75;2.20;;;39.90;29.50;;;;;;4993400;28;20030;-13
2022/07/30 11:28:39;;;;;;;2.50;2.30;;;40.10;29.20;;;;;;4993063;28;20081;-14
2022/07/30 11:31:24;;;;;;;3.58;1.83;;;40.20;29.20;;;;;;4992967;28;20041;-13
2022/07/30 11:33:51;;;;;;;2.40;2.20;;;40.20;28.10;;;;;;4993060;28;20046;-14
2022/07/30 11:36:17;;;;;;;2.00;1.90;;;40.10;29.30;;;;;;4992828;28;20034;-14
2022/07/30 11:38:54;;;;;;;2.47;2.28;;;40.30;29.30;;;;;;4993287;28;20033;-13
2022/07/30 11:41:21;;;;;;;2.40;2.20;;;40.50;28.50;;;;;;4992768;28;20062;-13
2022/07/30 11:43:47;;;;;;;2.40;2.20;;;40.40;29.20;;;;;;4992915;28;20049;-13
2022/07/30 11:46:22;;;;;;;3.58;2.00;;;40.30;29.70;;;;;;4992820;28;20097;-14
2022/07/30 11:49:07;;;;;;;2.08;1.98;;;40.40;29.60;;;;;;4999710;28;20118;-14
2022/07/30 11:51:45;;;;;;;2.58;2.38;;;40.20;29.60;;;;;;5014426;28;20014;-13
2022/07/30 11:54:12;;;;;;;2.58;2.38;;;40.30;29.60;;;;;;5014665;28;20030;-13
2022/07/30 11:56:53;;;;;;;2.35;2.15;;;40.50;30.30;;;;;;5013982;28;20114;-13
2022/07/30 11:59:19;;;;;;;2.38;2.28;;;40.90;29.80;;;;;;5014311;28;20448;-13
2022/07/30 12:01:55;;;;;;;2.72;2.53;;;41.10;28.70;;;;;;5014460;28;20105;-13
2022/07/30 12:04:23;;;;;;;2.60;2.30;;;41.30;28.40;;;;;;5014248;28;20034;-14
2022/07/30 12:06:49;;;;;;;2.05;1.95;;;41.40;29.00;;;;;;5013650;28;20018;-13
2022/07/30 12:09:28;;;;;;;2.50;2.30;;;41.60;28.80;;;;;;5014052;28;20512;-13
2022/07/30 12:11:56;;;;;;;3.17;2.30;;;42.00;28.30;;;;;;5014094;28;20474;-13
2022/07/30 12:14:22;;;;;;;2.70;2.47;;;42.20;28.30;;;;;;5013740;28;20053;-13
2022/07/30 12:16:50;;;;;;;2.25;2.10;;;42.20;27.60;;;;;;5013856;28;20056;-13
2022/07/30 12:19:16;;;;;;;4.55;2.45;;;41.90;28.40;;;;;;5014207;28;20555;-13
2022/07/30 12:21:42;;;;;;;2.75;2.40;;;41.90;28.80;;;;;;5013860;28;20022;-13
2022/07/30 12:24:11;;;;;;;2.50;2.30;;;42.20;27.90;;;;;;5013969;28;20105;-14
2022/07/30 12:26:37;;;;;;;2.65;2.45;;;42.50;27.70;;;;;;5013554;28;20474;-14
2022/07/30 12:29:06;;;;;;;2.72;2.53;;;42.90;26.60;;;;;;5014203;28;20034;-14
2022/07/30 12:31:33;;;;;;;3.60;2.50;;;43.10;26.70;;;;;;5013593;28;20498;-13
2022/07/30 12:33:59;;;;;;;4.00;2.33;;;43.50;26.30;;;;;;5013746;28;20025;-13
2022/07/30 12:36:31;;;;;;;2.67;2.47;;;43.70;26.50;;;;;;5013323;28;20030;-14
2022/07/30 12:39:02;;;;;;;2.13;2.03;;;43.90;26.40;;;;;;5014116;28;20025;-14
2022/07/30 12:41:48;;;;;;;3.25;2.42;;;44.00;26.60;;;;;;5013655;28;20049;-14
2022/07/30 12:44:34;;;;;;;3.67;2.60;;;43.40;25.90;;;;;;5013225;28;20113;-15
2022/07/30 12:47:01;;;;;;;2.95;2.38;;;42.40;26.60;;;;;;5014177;28;20041;-13
2022/07/30 12:49:31;;;;;;;3.72;2.75;;;41.10;28.70;;;;;;5013790;28;20030;-14
2022/07/30 12:51:57;;;;;;;3.58;2.42;;;40.40;29.50;;;;;;5013417;28;20058;-13